sensor_id;sensor_type;location;lat;lon;timestamp;P1;durP1;ratioP1;P2;durP2;ratioP2
7807;SDS011;3949;49.254;8.894;2022-07-22T00:01:48;8.07;;;7.47;;
7807;SDS011;3949;49.254;8.894;2022-07-22T00:04:14;7.97;;;7.27;;
7807;SDS011;3949;49.254;8.894;2022-07-22T00:06:41;9.00;;;8.30;;
7807;SDS011;3949;49.254;8.894;2022-07-22T00:09:07;8.20;;;7.50;;
7807;SDS011;3949;49.254;8.894;2022-07-22T00:11:34;9.30;;;8.40;;
7807;SDS011;3949;49.254;8.894;2022-07-22T00:14:00;10.13;;;9.13;;
7807;SDS011;3949;49.254;8.894;2022-07-22T00:16:26;10.20;;;9.40;;
7807;SDS011;3949;49.254;8.894;2022-07-22T00:18:52;10.20;;;9.23;;
7807;SDS011;3949;49.254;8.894;2022-07-22T00:21:18;9.53;;;8.83;;
7807;SDS011;3949;49.254;8.894;2022-07-22T00:23:44;8.80;;;8.10;;
7807;SDS011;3949;49.254;8.894;2022-07-22T00:26:10;9.87;;;9.07;;
7807;SDS011;3949;49.254;8.894;2022-07-22T00:28:36;8.40;;;7.77;;
7807;SDS011;3949;49.254;8.894;2022-07-22T00:31:02;9.40;;;8.53;;
7807;SDS011;3949;49.254;8.894;2022-07-22T00:33:28;11.10;;;10.13;;
7807;SDS011;3949;49.254;8.894;2022-07-22T00:35:54;14.77;;;13.47;;
7807;SDS011;3949;49.254;8.894;2022-07-22T00:38:20;12.30;;;11.30;;
7807;SDS011;3949;49.254;8.894;2022-07-22T00:40:46;10.83;;;9.83;;
7807;SDS011;3949;49.254;8.894;2022-07-22T00:43:12;12.10;;;11.07;;
7807;SDS011;3949;49.254;8.894;2022-07-22T00:45:38;10.47;;;9.57;;
7807;SDS011;3949;49.254;8.894;2022-07-22T00:48:05;10.37;;;9.47;;
7807;SDS011;3949;49.254;8.894;2022-07-22T00:50:31;11.00;;;10.00;;
7807;SDS011;3949;49.254;8.894;2022-07-22T00:52:57;10.37;;;9.47;;
7807;SDS011;3949;49.254;8.894;2022-07-22T00:55:23;10.47;;;9.57;;
7807;SDS011;3949;49.254;8.894;2022-07-22T00:57:49;11.63;;;10.70;;
7807;SDS011;3949;49.254;8.894;2022-07-22T01:00:17;11.43;;;10.50;;
7807;SDS011;3949;49.254;8.894;2022-07-22T01:02:43;11.37;;;10.37;;
7807;SDS011;3949;49.254;8.894;2022-07-22T01:05:09;10.70;;;9.60;;
7807;SDS011;3949;49.254;8.894;2022-07-22T01:07:36;11.03;;;9.97;;
7807;SDS011;3949;49.254;8.894;2022-07-22T01:10:02;10.67;;;9.73;;
7807;SDS011;3949;49.254;8.894;2022-07-22T01:12:28;10.03;;;9.23;;
7807;SDS011;3949;49.254;8.894;2022-07-22T01:14:54;9.67;;;8.80;;
7807;SDS011;3949;49.254;8.894;2022-07-22T01:17:20;9.43;;;8.63;;
7807;SDS011;3949;49.254;8.894;2022-07-22T01:19:46;9.83;;;9.03;;
7807;SDS011;3949;49.254;8.894;2022-07-22T01:22:12;9.07;;;8.27;;
7807;SDS011;3949;49.254;8.894;2022-07-22T01:24:38;10.70;;;9.70;;
7807;SDS011;3949;49.254;8.894;2022-07-22T01:27:04;10.83;;;9.93;;
7807;SDS011;3949;49.254;8.894;2022-07-22T01:29:30;10.33;;;9.47;;
7807;SDS011;3949;49.254;8.894;2022-07-22T01:31:56;10.07;;;9.20;;
7807;SDS011;3949;49.254;8.894;2022-07-22T01:34:23;10.93;;;10.07;;
7807;SDS011;3949;49.254;8.894;2022-07-22T01:36:49;11.30;;;10.20;;
7807;SDS011;3949;49.254;8.894;2022-07-22T01:39:15;9.97;;;9.17;;
7807;SDS011;3949;49.254;8.894;2022-07-22T01:41:41;11.70;;;10.50;;
7807;SDS011;3949;49.254;8.894;2022-07-22T01:44:10;12.20;;;10.97;;
7807;SDS011;3949;49.254;8.894;2022-07-22T01:46:36;12.27;;;11.17;;
7807;SDS011;3949;49.254;8.894;2022-07-22T01:49:02;12.70;;;11.47;;
7807;SDS011;3949;49.254;8.894;2022-07-22T01:51:28;14.03;;;12.70;;
7807;SDS011;3949;49.254;8.894;2022-07-22T01:53:54;12.23;;;11.23;;
7807;SDS011;3949;49.254;8.894;2022-07-22T01:56:20;12.83;;;11.57;;
7807;SDS011;3949;49.254;8.894;2022-07-22T01:58:46;11.73;;;10.80;;
7807;SDS011;3949;49.254;8.894;2022-07-22T02:01:12;10.83;;;9.93;;
7807;SDS011;3949;49.254;8.894;2022-07-22T02:03:38;11.73;;;10.73;;
7807;SDS011;3949;49.254;8.894;2022-07-22T02:06:04;12.17;;;11.10;;
7807;SDS011;3949;49.254;8.894;2022-07-22T02:08:30;11.90;;;10.90;;
7807;SDS011;3949;49.254;8.894;2022-07-22T02:10:56;12.07;;;11.03;;
7807;SDS011;3949;49.254;8.894;2022-07-22T02:13:22;13.20;;;12.00;;
7807;SDS011;3949;49.254;8.894;2022-07-22T02:15:48;11.97;;;10.90;;
7807;SDS011;3949;49.254;8.894;2022-07-22T02:18:17;12.23;;;11.13;;
7807;SDS011;3949;49.254;8.894;2022-07-22T02:20:43;12.43;;;11.17;;
7807;SDS011;3949;49.254;8.894;2022-07-22T02:23:10;12.67;;;11.37;;
7807;SDS011;3949;49.254;8.894;2022-07-22T02:25:36;11.40;;;10.40;;
7807;SDS011;3949;49.254;8.894;2022-07-22T02:28:03;12.93;;;11.83;;
7807;SDS011;3949;49.254;8.894;2022-07-22T02:30:29;11.70;;;10.60;;
7807;SDS011;3949;49.254;8.894;2022-07-22T02:32:55;12.90;;;11.80;;
7807;SDS011;3949;49.254;8.894;2022-07-22T02:35:21;12.67;;;11.43;;
7807;SDS011;3949;49.254;8.894;2022-07-22T02:37:47;12.90;;;11.77;;
7807;SDS011;3949;49.254;8.894;2022-07-22T02:40:13;13.70;;;12.47;;
7807;SDS011;3949;49.254;8.894;2022-07-22T02:42:39;12.53;;;11.33;;
7807;SDS011;3949;49.254;8.894;2022-07-22T02:45:06;13.13;;;11.83;;
7807;SDS011;3949;49.254;8.894;2022-07-22T02:47:32;12.93;;;11.67;;
7807;SDS011;3949;49.254;8.894;2022-07-22T02:49:58;13.90;;;12.70;;
7807;SDS011;3949;49.254;8.894;2022-07-22T02:52:24;11.57;;;10.57;;
7807;SDS011;3949;49.254;8.894;2022-07-22T02:54:50;12.20;;;11.03;;
7807;SDS011;3949;49.254;8.894;2022-07-22T02:57:16;12.00;;;11.00;;
7807;SDS011;3949;49.254;8.894;2022-07-22T02:59:42;13.77;;;12.43;;
7807;SDS011;3949;49.254;8.894;2022-07-22T03:02:08;12.43;;;11.33;;
7807;SDS011;3949;49.254;8.894;2022-07-22T03:04:34;14.20;;;12.80;;
7807;SDS011;3949;49.254;8.894;2022-07-22T03:07:00;13.20;;;12.00;;
7807;SDS011;3949;49.254;8.894;2022-07-22T03:09:26;14.40;;;13.20;;
7807;SDS011;3949;49.254;8.894;2022-07-22T03:11:53;18.13;;;16.43;;
7807;SDS011;3949;49.254;8.894;2022-07-22T03:14:19;14.37;;;13.07;;
7807;SDS011;3949;49.254;8.894;2022-07-22T03:16:45;16.13;;;14.67;;
7807;SDS011;3949;49.254;8.894;2022-07-22T03:19:11;17.07;;;15.47;;
7807;SDS011;3949;49.254;8.894;2022-07-22T03:21:37;16.00;;;14.63;;
7807;SDS011;3949;49.254;8.894;2022-07-22T03:24:03;16.03;;;14.53;;
7807;SDS011;3949;49.254;8.894;2022-07-22T03:26:29;14.73;;;13.43;;
7807;SDS011;3949;49.254;8.894;2022-07-22T03:28:55;12.30;;;11.20;;
7807;SDS011;3949;49.254;8.894;2022-07-22T03:31:21;14.33;;;12.73;;
7807;SDS011;3949;49.254;8.894;2022-07-22T03:33:47;13.30;;;12.20;;
7807;SDS011;3949;49.254;8.894;2022-07-22T03:36:13;12.63;;;11.57;;
7807;SDS011;3949;49.254;8.894;2022-07-22T03:38:39;13.60;;;12.40;;
7807;SDS011;3949;49.254;8.894;2022-07-22T03:41:05;14.80;;;13.40;;
7807;SDS011;3949;49.254;8.894;2022-07-22T03:43:31;12.93;;;11.63;;
7807;SDS011;3949;49.254;8.894;2022-07-22T03:45:57;12.47;;;11.37;;
7807;SDS011;3949;49.254;8.894;2022-07-22T03:48:23;12.37;;;11.27;;
7807;SDS011;3949;49.254;8.894;2022-07-22T03:50:49;12.33;;;11.30;;
7807;SDS011;3949;49.254;8.894;2022-07-22T03:53:16;12.80;;;11.60;;
7807;SDS011;3949;49.254;8.894;2022-07-22T03:55:42;14.57;;;13.10;;
7807;SDS011;3949;49.254;8.894;2022-07-22T03:58:08;15.47;;;14.07;;
7807;SDS011;3949;49.254;8.894;2022-07-22T04:00:34;15.53;;;14.20;;
7807;SDS011;3949;49.254;8.894;2022-07-22T04:03:00;15.00;;;13.60;;
7807;SDS011;3949;49.254;8.894;2022-07-22T04:05:26;15.77;;;14.37;;
7807;SDS011;3949;49.254;8.894;2022-07-22T04:07:52;16.70;;;15.03;;
7807;SDS011;3949;49.254;8.894;2022-07-22T04:10:18;17.53;;;15.83;;
7807;SDS011;3949;49.254;8.894;2022-07-22T04:12:44;17.50;;;15.70;;
7807;SDS011;3949;49.254;8.894;2022-07-22T04:15:10;17.13;;;15.60;;
7807;SDS011;3949;49.254;8.894;2022-07-22T04:17:36;18.07;;;16.23;;
7807;SDS011;3949;49.254;8.894;2022-07-22T04:20:02;18.10;;;16.30;;
7807;SDS011;3949;49.254;8.894;2022-07-22T04:22:29;16.90;;;15.30;;
7807;SDS011;3949;49.254;8.894;2022-07-22T04:24:55;17.77;;;16.17;;
7807;SDS011;3949;49.254;8.894;2022-07-22T04:27:21;16.70;;;15.00;;
7807;SDS011;3949;49.254;8.894;2022-07-22T04:29:48;15.43;;;14.03;;
7807;SDS011;3949;49.254;8.894;2022-07-22T04:32:15;17.60;;;15.90;;
7807;SDS011;3949;49.254;8.894;2022-07-22T04:34:41;18.43;;;16.73;;
7807;SDS011;3949;49.254;8.894;2022-07-22T04:37:07;16.87;;;15.27;;
7807;SDS011;3949;49.254;8.894;2022-07-22T04:39:33;18.47;;;16.83;;
7807;SDS011;3949;49.254;8.894;2022-07-22T04:41:59;16.60;;;14.90;;
7807;SDS011;3949;49.254;8.894;2022-07-22T04:44:25;17.33;;;15.60;;
7807;SDS011;3949;49.254;8.894;2022-07-22T04:46:51;15.10;;;13.80;;
7807;SDS011;3949;49.254;8.894;2022-07-22T04:49:17;16.47;;;14.90;;
7807;SDS011;3949;49.254;8.894;2022-07-22T04:51:43;16.50;;;14.90;;
7807;SDS011;3949;49.254;8.894;2022-07-22T04:54:09;15.43;;;13.93;;
7807;SDS011;3949;49.254;8.894;2022-07-22T04:56:35;15.93;;;14.53;;
7807;SDS011;3949;49.254;8.894;2022-07-22T04:59:01;15.97;;;14.57;;
7807;SDS011;3949;49.254;8.894;2022-07-22T05:01:27;15.90;;;14.50;;
7807;SDS011;3949;49.254;8.894;2022-07-22T05:03:53;16.03;;;14.63;;
7807;SDS011;3949;49.254;8.894;2022-07-22T05:06:19;16.13;;;14.67;;
7807;SDS011;3949;49.254;8.894;2022-07-22T05:08:45;16.87;;;15.17;;
7807;SDS011;3949;49.254;8.894;2022-07-22T05:11:11;15.33;;;13.97;;
7807;SDS011;3949;49.254;8.894;2022-07-22T05:13:37;17.80;;;15.83;;
7807;SDS011;3949;49.254;8.894;2022-07-22T05:16:04;17.77;;;16.07;;
7807;SDS011;3949;49.254;8.894;2022-07-22T05:18:30;16.23;;;14.73;;
7807;SDS011;3949;49.254;8.894;2022-07-22T05:20:56;15.53;;;14.13;;
7807;SDS011;3949;49.254;8.894;2022-07-22T05:23:22;14.70;;;13.33;;
7807;SDS011;3949;49.254;8.894;2022-07-22T05:25:48;15.47;;;14.00;;
7807;SDS011;3949;49.254;8.894;2022-07-22T05:28:14;15.70;;;14.17;;
7807;SDS011;3949;49.254;8.894;2022-07-22T05:30:40;14.87;;;13.67;;
7807;SDS011;3949;49.254;8.894;2022-07-22T05:33:06;15.03;;;13.63;;
7807;SDS011;3949;49.254;8.894;2022-07-22T05:35:32;16.73;;;15.13;;
7807;SDS011;3949;49.254;8.894;2022-07-22T05:37:58;14.60;;;13.30;;
7807;SDS011;3949;49.254;8.894;2022-07-22T05:40:24;14.87;;;13.67;;
7807;SDS011;3949;49.254;8.894;2022-07-22T05:42:50;14.27;;;13.07;;
7807;SDS011;3949;49.254;8.894;2022-07-22T05:45:16;15.13;;;13.73;;
7807;SDS011;3949;49.254;8.894;2022-07-22T05:47:42;14.20;;;13.10;;
7807;SDS011;3949;49.254;8.894;2022-07-22T05:50:08;15.93;;;14.63;;
7807;SDS011;3949;49.254;8.894;2022-07-22T05:52:35;14.10;;;12.90;;
7807;SDS011;3949;49.254;8.894;2022-07-22T05:55:01;13.43;;;12.23;;
7807;SDS011;3949;49.254;8.894;2022-07-22T05:57:28;14.67;;;13.37;;
7807;SDS011;3949;49.254;8.894;2022-07-22T05:59:54;14.47;;;13.17;;
7807;SDS011;3949;49.254;8.894;2022-07-22T06:02:20;14.93;;;13.63;;
7807;SDS011;3949;49.254;8.894;2022-07-22T06:04:46;13.50;;;12.30;;
7807;SDS011;3949;49.254;8.894;2022-07-22T06:07:12;14.77;;;13.37;;
7807;SDS011;3949;49.254;8.894;2022-07-22T06:09:38;14.17;;;12.97;;
7807;SDS011;3949;49.254;8.894;2022-07-22T06:12:04;13.60;;;12.43;;
7807;SDS011;3949;49.254;8.894;2022-07-22T06:14:30;13.10;;;12.00;;
7807;SDS011;3949;49.254;8.894;2022-07-22T06:16:56;13.57;;;12.43;;
7807;SDS011;3949;49.254;8.894;2022-07-22T06:19:22;13.97;;;12.77;;
7807;SDS011;3949;49.254;8.894;2022-07-22T06:21:49;12.90;;;11.73;;
7807;SDS011;3949;49.254;8.894;2022-07-22T06:24:15;13.40;;;12.10;;
7807;SDS011;3949;49.254;8.894;2022-07-22T06:26:41;13.23;;;12.13;;
7807;SDS011;3949;49.254;8.894;2022-07-22T06:29:07;11.97;;;10.97;;
7807;SDS011;3949;49.254;8.894;2022-07-22T06:31:33;13.63;;;12.53;;
7807;SDS011;3949;49.254;8.894;2022-07-22T06:33:59;17.80;;;16.13;;
7807;SDS011;3949;49.254;8.894;2022-07-22T06:36:30;12.97;;;11.87;;
7807;SDS011;3949;49.254;8.894;2022-07-22T06:38:56;12.27;;;11.27;;
7807;SDS011;3949;49.254;8.894;2022-07-22T06:41:22;12.30;;;11.30;;
7807;SDS011;3949;49.254;8.894;2022-07-22T06:43:48;12.47;;;11.33;;
7807;SDS011;3949;49.254;8.894;2022-07-22T06:46:14;12.17;;;11.27;;
7807;SDS011;3949;49.254;8.894;2022-07-22T06:48:40;11.60;;;10.60;;
7807;SDS011;3949;49.254;8.894;2022-07-22T06:51:06;12.77;;;11.67;;
7807;SDS011;3949;49.254;8.894;2022-07-22T06:53:32;12.00;;;11.00;;
7807;SDS011;3949;49.254;8.894;2022-07-22T06:55:58;12.20;;;11.10;;
7807;SDS011;3949;49.254;8.894;2022-07-22T06:58:24;11.83;;;10.83;;
7807;SDS011;3949;49.254;8.894;2022-07-22T07:00:50;11.20;;;10.17;;
7807;SDS011;3949;49.254;8.894;2022-07-22T07:03:16;12.23;;;10.03;;
7807;SDS011;3949;49.254;8.894;2022-07-22T07:05:43;12.33;;;11.10;;
7807;SDS011;3949;49.254;8.894;2022-07-22T07:08:09;11.93;;;10.73;;
7807;SDS011;3949;49.254;8.894;2022-07-22T07:10:35;11.43;;;10.43;;
7807;SDS011;3949;49.254;8.894;2022-07-22T07:13:01;10.97;;;9.27;;
7807;SDS011;3949;49.254;8.894;2022-07-22T07:15:27;10.83;;;9.83;;
7807;SDS011;3949;49.254;8.894;2022-07-22T07:17:53;10.60;;;9.70;;
7807;SDS011;3949;49.254;8.894;2022-07-22T07:20:21;9.02;;;8.30;;
7807;SDS011;3949;49.254;8.894;2022-07-22T07:22:47;9.03;;;8.33;;
7807;SDS011;3949;49.254;8.894;2022-07-22T07:25:13;11.57;;;10.50;;
7807;SDS011;3949;49.254;8.894;2022-07-22T07:27:39;8.87;;;8.07;;
7807;SDS011;3949;49.254;8.894;2022-07-22T07:30:05;9.67;;;8.83;;
7807;SDS011;3949;49.254;8.894;2022-07-22T07:32:31;8.73;;;7.90;;
7807;SDS011;3949;49.254;8.894;2022-07-22T07:34:57;8.87;;;8.07;;
7807;SDS011;3949;49.254;8.894;2022-07-22T07:37:23;8.10;;;7.40;;
7807;SDS011;3949;49.254;8.894;2022-07-22T07:39:49;9.03;;;8.13;;
7807;SDS011;3949;49.254;8.894;2022-07-22T07:42:15;9.53;;;8.40;;
7807;SDS011;3949;49.254;8.894;2022-07-22T07:44:41;11.27;;;10.27;;
7807;SDS011;3949;49.254;8.894;2022-07-22T07:47:07;9.23;;;8.33;;
7807;SDS011;3949;49.254;8.894;2022-07-22T07:49:33;8.60;;;7.80;;
7807;SDS011;3949;49.254;8.894;2022-07-22T07:51:59;8.80;;;8.10;;
7807;SDS011;3949;49.254;8.894;2022-07-22T07:54:25;9.27;;;8.37;;
7807;SDS011;3949;49.254;8.894;2022-07-22T07:56:51;9.03;;;7.97;;
7807;SDS011;3949;49.254;8.894;2022-07-22T07:59:18;7.70;;;7.10;;
7807;SDS011;3949;49.254;8.894;2022-07-22T08:01:44;42.33;;;32.17;;
7807;SDS011;3949;49.254;8.894;2022-07-22T08:04:10;8.00;;;7.30;;
7807;SDS011;3949;49.254;8.894;2022-07-22T08:06:36;8.20;;;7.43;;
7807;SDS011;3949;49.254;8.894;2022-07-22T08:09:03;7.27;;;6.60;;
7807;SDS011;3949;49.254;8.894;2022-07-22T08:11:29;7.63;;;6.90;;
7807;SDS011;3949;49.254;8.894;2022-07-22T08:13:55;7.20;;;6.70;;
7807;SDS011;3949;49.254;8.894;2022-07-22T08:16:21;7.53;;;6.83;;
7807;SDS011;3949;49.254;8.894;2022-07-22T08:18:47;7.27;;;6.67;;
7807;SDS011;3949;49.254;8.894;2022-07-22T08:21:13;7.57;;;6.87;;
7807;SDS011;3949;49.254;8.894;2022-07-22T08:23:39;7.27;;;6.67;;
7807;SDS011;3949;49.254;8.894;2022-07-22T08:26:05;6.63;;;6.03;;
7807;SDS011;3949;49.254;8.894;2022-07-22T08:28:31;6.67;;;6.17;;
7807;SDS011;3949;49.254;8.894;2022-07-22T08:30:57;6.80;;;6.20;;
7807;SDS011;3949;49.254;8.894;2022-07-22T08:33:23;7.00;;;6.40;;
7807;SDS011;3949;49.254;8.894;2022-07-22T08:35:49;6.93;;;5.63;;
7807;SDS011;3949;49.254;8.894;2022-07-22T08:38:15;6.07;;;5.57;;
7807;SDS011;3949;49.254;8.894;2022-07-22T08:40:41;6.10;;;5.60;;
7807;SDS011;3949;49.254;8.894;2022-07-22T08:43:07;5.50;;;5.00;;
7807;SDS011;3949;49.254;8.894;2022-07-22T08:45:33;6.38;;;5.78;;
7807;SDS011;3949;49.254;8.894;2022-07-22T08:47:59;5.55;;;5.05;;
7807;SDS011;3949;49.254;8.894;2022-07-22T08:50:28;5.97;;;5.53;;
7807;SDS011;3949;49.254;8.894;2022-07-22T08:52:54;5.00;;;4.60;;
7807;SDS011;3949;49.254;8.894;2022-07-22T08:55:20;5.97;;;5.45;;
7807;SDS011;3949;49.254;8.894;2022-07-22T08:57:46;6.53;;;5.93;;
7807;SDS011;3949;49.254;8.894;2022-07-22T09:00:17;5.72;;;5.20;;
7807;SDS011;3949;49.254;8.894;2022-07-22T09:02:43;5.70;;;5.20;;
7807;SDS011;3949;49.254;8.894;2022-07-22T09:05:10;5.50;;;5.10;;
7807;SDS011;3949;49.254;8.894;2022-07-22T09:07:39;5.30;;;4.90;;
7807;SDS011;3949;49.254;8.894;2022-07-22T09:10:07;5.95;;;5.45;;
7807;SDS011;3949;49.254;8.894;2022-07-22T09:12:34;6.25;;;5.75;;
7807;SDS011;3949;49.254;8.894;2022-07-22T09:15:00;6.28;;;5.68;;
7807;SDS011;3949;49.254;8.894;2022-07-22T09:17:28;5.65;;;5.20;;
7807;SDS011;3949;49.254;8.894;2022-07-22T09:19:58;5.43;;;5.03;;
7807;SDS011;3949;49.254;8.894;2022-07-22T09:22:57;6.20;;;5.70;;
7807;SDS011;3949;49.254;8.894;2022-07-22T09:25:26;6.45;;;5.75;;
7807;SDS011;3949;49.254;8.894;2022-07-22T09:27:54;5.65;;;5.10;;
7807;SDS011;3949;49.254;8.894;2022-07-22T09:30:21;6.07;;;5.57;;
7807;SDS011;3949;49.254;8.894;2022-07-22T09:32:48;10.48;;;9.52;;
7807;SDS011;3949;49.254;8.894;2022-07-22T09:35:14;7.05;;;6.20;;
7807;SDS011;3949;49.254;8.894;2022-07-22T09:37:51;7.68;;;6.05;;
7807;SDS011;3949;49.254;8.894;2022-07-22T09:40:18;10.00;;;7.15;;
7807;SDS011;3949;49.254;8.894;2022-07-22T09:42:45;6.22;;;5.68;;
7807;SDS011;3949;49.254;8.894;2022-07-22T09:45:12;6.35;;;5.85;;
7807;SDS011;3949;49.254;8.894;2022-07-22T09:47:40;5.95;;;5.18;;
7807;SDS011;3949;49.254;8.894;2022-07-22T09:50:14;5.90;;;5.40;;
7807;SDS011;3949;49.254;8.894;2022-07-22T09:52:40;5.60;;;5.10;;
7807;SDS011;3949;49.254;8.894;2022-07-22T09:55:07;5.00;;;4.70;;
7807;SDS011;3949;49.254;8.894;2022-07-22T09:57:33;5.45;;;5.05;;
7807;SDS011;3949;49.254;8.894;2022-07-22T09:59:59;4.78;;;4.47;;
7807;SDS011;3949;49.254;8.894;2022-07-22T10:02:25;6.90;;;6.20;;
7807;SDS011;3949;49.254;8.894;2022-07-22T10:04:53;5.22;;;4.82;;
7807;SDS011;3949;49.254;8.894;2022-07-22T10:07:20;4.82;;;4.53;;
7807;SDS011;3949;49.254;8.894;2022-07-22T10:09:47;5.20;;;4.80;;
7807;SDS011;3949;49.254;8.894;2022-07-22T10:12:13;5.65;;;5.10;;
7807;SDS011;3949;49.254;8.894;2022-07-22T10:14:40;5.00;;;4.47;;
7807;SDS011;3949;49.254;8.894;2022-07-22T10:17:06;5.72;;;5.07;;
7807;SDS011;3949;49.254;8.894;2022-07-22T10:19:32;5.00;;;4.60;;
7807;SDS011;3949;49.254;8.894;2022-07-22T10:21:58;6.20;;;4.95;;
7807;SDS011;3949;49.254;8.894;2022-07-22T10:24:24;5.65;;;5.00;;
7807;SDS011;3949;49.254;8.894;2022-07-22T10:26:51;5.55;;;5.05;;
7807;SDS011;3949;49.254;8.894;2022-07-22T10:29:27;5.10;;;4.70;;
7807;SDS011;3949;49.254;8.894;2022-07-22T10:34:38;5.22;;;4.82;;
7807;SDS011;3949;49.254;8.894;2022-07-22T10:37:08;5.32;;;4.90;;
7807;SDS011;3949;49.254;8.894;2022-07-22T10:45:20;5.97;;;5.10;;
7807;SDS011;3949;49.254;8.894;2022-07-22T10:47:53;4.90;;;4.50;;
7807;SDS011;3949;49.254;8.894;2022-07-22T10:53:07;5.40;;;5.00;;
7807;SDS011;3949;49.254;8.894;2022-07-22T10:55:34;5.18;;;4.68;;
7807;SDS011;3949;49.254;8.894;2022-07-22T10:58:00;5.05;;;4.70;;
7807;SDS011;3949;49.254;8.894;2022-07-22T11:00:26;4.65;;;4.35;;
7807;SDS011;3949;49.254;8.894;2022-07-22T11:02:52;5.28;;;4.38;;
7807;SDS011;3949;49.254;8.894;2022-07-22T11:05:27;4.65;;;4.35;;
7807;SDS011;3949;49.254;8.894;2022-07-22T11:07:55;5.45;;;4.95;;
7807;SDS011;3949;49.254;8.894;2022-07-22T11:10:21;5.55;;;5.03;;
7807;SDS011;3949;49.254;8.894;2022-07-22T11:12:47;4.97;;;4.68;;
7807;SDS011;3949;49.254;8.894;2022-07-22T11:15:14;5.80;;;5.40;;
7807;SDS011;3949;49.254;8.894;2022-07-22T11:17:40;4.82;;;4.43;;
7807;SDS011;3949;49.254;8.894;2022-07-22T11:20:10;6.03;;;5.53;;
7807;SDS011;3949;49.254;8.894;2022-07-22T11:22:37;4.72;;;4.43;;
7807;SDS011;3949;49.254;8.894;2022-07-22T11:25:04;4.97;;;4.55;;
7807;SDS011;3949;49.254;8.894;2022-07-22T11:27:31;5.05;;;4.60;;
7807;SDS011;3949;49.254;8.894;2022-07-22T11:29:57;5.13;;;4.63;;
7807;SDS011;3949;49.254;8.894;2022-07-22T11:32:24;4.93;;;4.53;;
7807;SDS011;3949;49.254;8.894;2022-07-22T11:34:50;4.90;;;4.60;;
7807;SDS011;3949;49.254;8.894;2022-07-22T11:37:17;4.88;;;4.57;;
7807;SDS011;3949;49.254;8.894;2022-07-22T11:39:44;5.30;;;4.85;;
7807;SDS011;3949;49.254;8.894;2022-07-22T11:42:10;4.82;;;4.47;;
7807;SDS011;3949;49.254;8.894;2022-07-22T11:44:37;5.50;;;5.05;;
7807;SDS011;3949;49.254;8.894;2022-07-22T11:47:04;5.47;;;4.78;;
7807;SDS011;3949;49.254;8.894;2022-07-22T11:49:31;5.32;;;4.82;;
7807;SDS011;3949;49.254;8.894;2022-07-22T11:52:02;5.53;;;4.85;;
7807;SDS011;3949;49.254;8.894;2022-07-22T11:54:28;5.50;;;5.10;;
7807;SDS011;3949;49.254;8.894;2022-07-22T11:56:54;5.70;;;5.20;;
7807;SDS011;3949;49.254;8.894;2022-07-22T11:59:21;4.97;;;4.57;;
7807;SDS011;3949;49.254;8.894;2022-07-22T12:01:47;5.30;;;4.80;;
7807;SDS011;3949;49.254;8.894;2022-07-22T12:04:17;12.60;;;5.68;;
7807;SDS011;3949;49.254;8.894;2022-07-22T12:06:44;5.35;;;4.78;;
7807;SDS011;3949;49.254;8.894;2022-07-22T12:09:11;5.05;;;4.65;;
7807;SDS011;3949;49.254;8.894;2022-07-22T12:11:42;4.80;;;4.40;;
7807;SDS011;3949;49.254;8.894;2022-07-22T12:14:15;4.95;;;4.55;;
7807;SDS011;3949;49.254;8.894;2022-07-22T12:16:41;4.90;;;4.50;;
7807;SDS011;3949;49.254;8.894;2022-07-22T12:19:10;5.10;;;4.70;;
7807;SDS011;3949;49.254;8.894;2022-07-22T12:21:48;5.13;;;4.63;;
7807;SDS011;3949;49.254;8.894;2022-07-22T12:24:15;5.07;;;4.68;;
7807;SDS011;3949;49.254;8.894;2022-07-22T12:29:15;5.10;;;4.68;;
7807;SDS011;3949;49.254;8.894;2022-07-22T12:31:48;4.82;;;4.53;;
7807;SDS011;3949;49.254;8.894;2022-07-22T12:34:15;4.95;;;4.50;;
7807;SDS011;3949;49.254;8.894;2022-07-22T12:36:46;4.90;;;4.47;;
7807;SDS011;3949;49.254;8.894;2022-07-22T12:39:16;4.97;;;4.65;;
7807;SDS011;3949;49.254;8.894;2022-07-22T12:41:46;5.18;;;4.78;;
7807;SDS011;3949;49.254;8.894;2022-07-22T12:44:20;5.07;;;4.68;;
7807;SDS011;3949;49.254;8.894;2022-07-22T12:46:47;5.65;;;5.25;;
7807;SDS011;3949;49.254;8.894;2022-07-22T12:49:14;5.15;;;4.78;;
7807;SDS011;3949;49.254;8.894;2022-07-22T12:51:40;4.68;;;4.38;;
7807;SDS011;3949;49.254;8.894;2022-07-22T12:54:06;4.55;;;4.20;;
7807;SDS011;3949;49.254;8.894;2022-07-22T12:56:33;4.93;;;4.53;;
7807;SDS011;3949;49.254;8.894;2022-07-22T12:58:59;5.10;;;4.78;;
7807;SDS011;3949;49.254;8.894;2022-07-22T13:01:26;4.78;;;4.40;;
7807;SDS011;3949;49.254;8.894;2022-07-22T13:03:52;4.72;;;4.40;;
7807;SDS011;3949;49.254;8.894;2022-07-22T13:06:18;4.70;;;4.30;;
7807;SDS011;3949;49.254;8.894;2022-07-22T13:08:44;4.43;;;4.13;;
7807;SDS011;3949;49.254;8.894;2022-07-22T13:11:10;4.63;;;4.22;;
7807;SDS011;3949;49.254;8.894;2022-07-22T13:13:36;4.65;;;4.32;;
7807;SDS011;3949;49.254;8.894;2022-07-22T13:16:02;4.63;;;4.22;;
7807;SDS011;3949;49.254;8.894;2022-07-22T13:18:28;4.60;;;4.30;;
7807;SDS011;3949;49.254;8.894;2022-07-22T13:20:54;4.90;;;4.50;;
7807;SDS011;3949;49.254;8.894;2022-07-22T13:23:20;5.38;;;4.88;;
7807;SDS011;3949;49.254;8.894;2022-07-22T13:25:46;5.03;;;4.60;;
7807;SDS011;3949;49.254;8.894;2022-07-22T13:28:12;4.45;;;4.15;;
7807;SDS011;3949;49.254;8.894;2022-07-22T13:30:38;5.25;;;4.85;;
7807;SDS011;3949;49.254;8.894;2022-07-22T13:33:04;5.47;;;4.97;;
7807;SDS011;3949;49.254;8.894;2022-07-22T13:35:30;5.32;;;4.80;;
7807;SDS011;3949;49.254;8.894;2022-07-22T13:37:56;5.10;;;4.80;;
7807;SDS011;3949;49.254;8.894;2022-07-22T13:40:22;5.03;;;4.65;;
7807;SDS011;3949;49.254;8.894;2022-07-22T13:42:48;5.22;;;4.78;;
7807;SDS011;3949;49.254;8.894;2022-07-22T13:45:14;4.40;;;4.10;;
7807;SDS011;3949;49.254;8.894;2022-07-22T13:47:40;4.43;;;4.05;;
7807;SDS011;3949;49.254;8.894;2022-07-22T13:50:07;4.82;;;4.25;;
7807;SDS011;3949;49.254;8.894;2022-07-22T13:52:33;5.32;;;4.70;;
7807;SDS011;3949;49.254;8.894;2022-07-22T13:54:59;5.47;;;4.95;;
7807;SDS011;3949;49.254;8.894;2022-07-22T13:57:25;4.93;;;4.53;;
7807;SDS011;3949;49.254;8.894;2022-07-22T13:59:51;4.50;;;4.20;;
7807;SDS011;3949;49.254;8.894;2022-07-22T14:02:17;4.97;;;4.65;;
7807;SDS011;3949;49.254;8.894;2022-07-22T14:04:44;4.80;;;4.30;;
7807;SDS011;3949;49.254;8.894;2022-07-22T14:07:10;5.07;;;4.55;;
7807;SDS011;3949;49.254;8.894;2022-07-22T14:09:36;5.95;;;4.70;;
7807;SDS011;3949;49.254;8.894;2022-07-22T14:12:02;4.72;;;4.32;;
7807;SDS011;3949;49.254;8.894;2022-07-22T14:14:28;5.05;;;4.65;;
7807;SDS011;3949;49.254;8.894;2022-07-22T14:16:54;4.85;;;4.45;;
7807;SDS011;3949;49.254;8.894;2022-07-22T14:19:20;4.60;;;4.20;;
7807;SDS011;3949;49.254;8.894;2022-07-22T14:21:46;4.85;;;4.45;;
7807;SDS011;3949;49.254;8.894;2022-07-22T14:24:12;4.85;;;4.45;;
7807;SDS011;3949;49.254;8.894;2022-07-22T14:26:39;4.70;;;4.30;;
7807;SDS011;3949;49.254;8.894;2022-07-22T14:29:06;4.88;;;4.57;;
7807;SDS011;3949;49.254;8.894;2022-07-22T14:31:32;4.43;;;4.13;;
7807;SDS011;3949;49.254;8.894;2022-07-22T14:33:59;4.82;;;4.35;;
7807;SDS011;3949;49.254;8.894;2022-07-22T14:36:25;5.10;;;4.70;;
7807;SDS011;3949;49.254;8.894;2022-07-22T14:38:51;5.25;;;4.85;;
7807;SDS011;3949;49.254;8.894;2022-07-22T14:41:18;4.93;;;4.47;;
7807;SDS011;3949;49.254;8.894;2022-07-22T14:43:44;4.40;;;4.07;;
7807;SDS011;3949;49.254;8.894;2022-07-22T14:46:10;4.85;;;4.47;;
7807;SDS011;3949;49.254;8.894;2022-07-22T14:48:37;5.75;;;5.25;;
7807;SDS011;3949;49.254;8.894;2022-07-22T14:51:03;5.57;;;5.07;;
7807;SDS011;3949;49.254;8.894;2022-07-22T14:53:29;5.80;;;5.30;;
7807;SDS011;3949;49.254;8.894;2022-07-22T14:55:55;5.00;;;4.50;;
7807;SDS011;3949;49.254;8.894;2022-07-22T14:58:21;4.57;;;4.28;;
7807;SDS011;3949;49.254;8.894;2022-07-22T15:00:47;5.50;;;4.90;;
7807;SDS011;3949;49.254;8.894;2022-07-22T15:03:13;4.88;;;4.55;;
7807;SDS011;3949;49.254;8.894;2022-07-22T15:05:39;4.70;;;4.28;;
7807;SDS011;3949;49.254;8.894;2022-07-22T15:08:07;4.75;;;4.45;;
7807;SDS011;3949;49.254;8.894;2022-07-22T15:10:33;5.00;;;4.60;;
7807;SDS011;3949;49.254;8.894;2022-07-22T15:12:59;4.97;;;4.57;;